sensor_id;sensor_type;location;lat;lon;timestamp;P1;durP1;ratioP1;P2;durP2;ratioP2
944;SDS011;459;48.676;9.034;2022-08-07T00:00:14;1.57;;;1.30;;
944;SDS011;459;48.676;9.034;2022-08-07T00:02:39;3.00;;;1.40;;
944;SDS011;459;48.676;9.034;2022-08-07T00:05:04;2.03;;;1.73;;
944;SDS011;459;48.676;9.034;2022-08-07T00:07:29;1.60;;;1.50;;
944;SDS011;459;48.676;9.034;2022-08-07T00:09:55;2.67;;;1.67;;
944;SDS011;459;48.676;9.034;2022-08-07T00:12:20;2.30;;;1.67;;
944;SDS011;459;48.676;9.034;2022-08-07T00:14:45;1.80;;;1.67;;
944;SDS011;459;48.676;9.034;2022-08-07T00:17:10;2.83;;;1.50;;
944;SDS011;459;48.676;9.034;2022-08-07T00:19:36;2.33;;;1.57;;
944;SDS011;459;48.676;9.034;2022-08-07T00:22:01;2.63;;;1.60;;
944;SDS011;459;48.676;9.034;2022-08-07T00:24:26;1.70;;;1.60;;
944;SDS011;459;48.676;9.034;2022-08-07T00:26:51;1.77;;;1.60;;
944;SDS011;459;48.676;9.034;2022-08-07T00:29:17;2.23;;;1.70;;
944;SDS011;459;48.676;9.034;2022-08-07T00:31:43;2.20;;;1.40;;
944;SDS011;459;48.676;9.034;2022-08-07T00:34:08;1.80;;;1.43;;
944;SDS011;459;48.676;9.034;2022-08-07T00:36:45;2.87;;;1.50;;
944;SDS011;459;48.676;9.034;2022-08-07T00:39:11;1.50;;;1.40;;
944;SDS011;459;48.676;9.034;2022-08-07T00:41:36;2.47;;;1.57;;
944;SDS011;459;48.676;9.034;2022-08-07T00:44:01;2.80;;;1.30;;
944;SDS011;459;48.676;9.034;2022-08-07T00:46:26;2.70;;;1.53;;
944;SDS011;459;48.676;9.034;2022-08-07T00:48:52;1.87;;;1.73;;
944;SDS011;459;48.676;9.034;2022-08-07T00:51:17;1.80;;;1.70;;
944;SDS011;459;48.676;9.034;2022-08-07T00:53:42;2.57;;;1.50;;
944;SDS011;459;48.676;9.034;2022-08-07T00:56:07;1.63;;;1.53;;
944;SDS011;459;48.676;9.034;2022-08-07T00:58:35;1.53;;;1.43;;
944;SDS011;459;48.676;9.034;2022-08-07T01:01:00;2.20;;;1.60;;
944;SDS011;459;48.676;9.034;2022-08-07T01:03:26;1.67;;;1.57;;
944;SDS011;459;48.676;9.034;2022-08-07T01:05:51;3.27;;;1.83;;
944;SDS011;459;48.676;9.034;2022-08-07T01:08:16;2.80;;;2.03;;
944;SDS011;459;48.676;9.034;2022-08-07T01:10:42;3.10;;;1.80;;
944;SDS011;459;48.676;9.034;2022-08-07T01:13:07;2.50;;;1.87;;
944;SDS011;459;48.676;9.034;2022-08-07T01:15:33;2.30;;;1.70;;
944;SDS011;459;48.676;9.034;2022-08-07T01:17:58;3.17;;;2.40;;
944;SDS011;459;48.676;9.034;2022-08-07T01:20:25;1.93;;;1.80;;
944;SDS011;459;48.676;9.034;2022-08-07T01:22:54;2.27;;;1.87;;
944;SDS011;459;48.676;9.034;2022-08-07T01:25:19;4.80;;;2.00;;
944;SDS011;459;48.676;9.034;2022-08-07T01:27:44;3.30;;;2.23;;
944;SDS011;459;48.676;9.034;2022-08-07T01:30:10;2.50;;;2.10;;
944;SDS011;459;48.676;9.034;2022-08-07T01:32:35;2.00;;;1.80;;
944;SDS011;459;48.676;9.034;2022-08-07T01:35:01;2.50;;;2.30;;
944;SDS011;459;48.676;9.034;2022-08-07T01:37:26;2.10;;;1.90;;
944;SDS011;459;48.676;9.034;2022-08-07T01:39:52;1.97;;;1.80;;
944;SDS011;459;48.676;9.034;2022-08-07T01:42:17;3.73;;;1.80;;
944;SDS011;459;48.676;9.034;2022-08-07T01:44:42;2.23;;;2.03;;
944;SDS011;459;48.676;9.034;2022-08-07T01:47:08;2.20;;;1.90;;
944;SDS011;459;48.676;9.034;2022-08-07T01:49:34;3.23;;;1.87;;
944;SDS011;459;48.676;9.034;2022-08-07T01:51:59;2.30;;;2.10;;
944;SDS011;459;48.676;9.034;2022-08-07T01:54:26;2.73;;;1.60;;
944;SDS011;459;48.676;9.034;2022-08-07T01:56:53;2.03;;;1.80;;
944;SDS011;459;48.676;9.034;2022-08-07T01:59:25;2.60;;;1.67;;
944;SDS011;459;48.676;9.034;2022-08-07T02:02:04;1.83;;;1.73;;
944;SDS011;459;48.676;9.034;2022-08-07T02:04:35;2.17;;;1.97;;
944;SDS011;459;48.676;9.034;2022-08-07T02:07:02;2.90;;;2.07;;
944;SDS011;459;48.676;9.034;2022-08-07T02:09:29;2.73;;;1.67;;
944;SDS011;459;48.676;9.034;2022-08-07T02:11:55;2.83;;;2.17;;
944;SDS011;459;48.676;9.034;2022-08-07T02:14:21;2.33;;;2.13;;
944;SDS011;459;48.676;9.034;2022-08-07T02:16:48;2.87;;;2.20;;
944;SDS011;459;48.676;9.034;2022-08-07T02:19:14;3.67;;;2.20;;
944;SDS011;459;48.676;9.034;2022-08-07T02:21:40;3.07;;;2.07;;
944;SDS011;459;48.676;9.034;2022-08-07T02:24:06;2.60;;;1.97;;
944;SDS011;459;48.676;9.034;2022-08-07T02:26:32;1.80;;;1.70;;
944;SDS011;459;48.676;9.034;2022-08-07T02:28:58;2.43;;;2.10;;
944;SDS011;459;48.676;9.034;2022-08-07T02:31:24;1.90;;;1.80;;
944;SDS011;459;48.676;9.034;2022-08-07T02:33:50;2.00;;;1.80;;
944;SDS011;459;48.676;9.034;2022-08-07T02:36:16;4.03;;;1.80;;
944;SDS011;459;48.676;9.034;2022-08-07T02:38:42;2.90;;;1.90;;
944;SDS011;459;48.676;9.034;2022-08-07T02:41:08;2.43;;;2.23;;
944;SDS011;459;48.676;9.034;2022-08-07T02:43:35;2.37;;;2.17;;
944;SDS011;459;48.676;9.034;2022-08-07T02:46:03;2.50;;;2.30;;
944;SDS011;459;48.676;9.034;2022-08-07T02:48:28;1.93;;;1.83;;
944;SDS011;459;48.676;9.034;2022-08-07T02:50:54;2.77;;;2.17;;
944;SDS011;459;48.676;9.034;2022-08-07T02:53:23;1.90;;;1.80;;
944;SDS011;459;48.676;9.034;2022-08-07T02:55:50;4.23;;;1.90;;
944;SDS011;459;48.676;9.034;2022-08-07T02:58:17;2.73;;;2.13;;
944;SDS011;459;48.676;9.034;2022-08-07T03:00:44;2.83;;;2.13;;
944;SDS011;459;48.676;9.034;2022-08-07T03:03:10;3.90;;;2.30;;
944;SDS011;459;48.676;9.034;2022-08-07T03:05:36;2.80;;;2.07;;
944;SDS011;459;48.676;9.034;2022-08-07T03:08:04;3.47;;;1.93;;
944;SDS011;459;48.676;9.034;2022-08-07T03:10:31;2.83;;;2.33;;
944;SDS011;459;48.676;9.034;2022-08-07T03:12:56;2.37;;;2.03;;
944;SDS011;459;48.676;9.034;2022-08-07T03:15:22;2.10;;;2.00;;
944;SDS011;459;48.676;9.034;2022-08-07T03:17:48;2.53;;;2.33;;
944;SDS011;459;48.676;9.034;2022-08-07T03:20:13;2.77;;;2.03;;
944;SDS011;459;48.676;9.034;2022-08-07T03:22:39;2.37;;;2.17;;
944;SDS011;459;48.676;9.034;2022-08-07T03:25:05;2.30;;;2.00;;
944;SDS011;459;48.676;9.034;2022-08-07T03:27:31;5.20;;;2.20;;
944;SDS011;459;48.676;9.034;2022-08-07T03:29:56;2.87;;;2.67;;
944;SDS011;459;48.676;9.034;2022-08-07T03:32:23;1.90;;;1.80;;
944;SDS011;459;48.676;9.034;2022-08-07T03:34:49;2.27;;;2.10;;
944;SDS011;459;48.676;9.034;2022-08-07T03:37:17;2.40;;;2.20;;
944;SDS011;459;48.676;9.034;2022-08-07T03:39:42;2.20;;;2.00;;
944;SDS011;459;48.676;9.034;2022-08-07T03:42:08;2.20;;;2.10;;
944;SDS011;459;48.676;9.034;2022-08-07T03:44:34;2.00;;;1.90;;
944;SDS011;459;48.676;9.034;2022-08-07T03:47:00;2.50;;;2.10;;
944;SDS011;459;48.676;9.034;2022-08-07T03:49:26;3.40;;;2.00;;
944;SDS011;459;48.676;9.034;2022-08-07T03:51:51;2.53;;;2.03;;
944;SDS011;459;48.676;9.034;2022-08-07T03:54:17;2.93;;;2.30;;
944;SDS011;459;48.676;9.034;2022-08-07T03:56:42;2.90;;;2.30;;
944;SDS011;459;48.676;9.034;2022-08-07T03:59:08;2.10;;;1.77;;
944;SDS011;459;48.676;9.034;2022-08-07T04:01:36;2.50;;;2.30;;
944;SDS011;459;48.676;9.034;2022-08-07T04:04:04;5.10;;;2.20;;
944;SDS011;459;48.676;9.034;2022-08-07T04:06:29;3.33;;;2.60;;
944;SDS011;459;48.676;9.034;2022-08-07T04:08:54;2.97;;;2.60;;
944;SDS011;459;48.676;9.034;2022-08-07T04:11:20;2.53;;;2.33;;
944;SDS011;459;48.676;9.034;2022-08-07T04:13:45;2.67;;;2.47;;
944;SDS011;459;48.676;9.034;2022-08-07T04:16:11;2.20;;;2.00;;
944;SDS011;459;48.676;9.034;2022-08-07T04:18:36;4.90;;;3.10;;
944;SDS011;459;48.676;9.034;2022-08-07T04:21:01;2.40;;;2.23;;
944;SDS011;459;48.676;9.034;2022-08-07T04:23:27;2.37;;;2.17;;
944;SDS011;459;48.676;9.034;2022-08-07T04:25:52;2.70;;;2.13;;
944;SDS011;459;48.676;9.034;2022-08-07T04:28:18;2.80;;;2.60;;
944;SDS011;459;48.676;9.034;2022-08-07T04:30:46;2.30;;;2.10;;
944;SDS011;459;48.676;9.034;2022-08-07T04:33:11;3.00;;;2.70;;
944;SDS011;459;48.676;9.034;2022-08-07T04:35:37;2.60;;;2.00;;
944;SDS011;459;48.676;9.034;2022-08-07T04:38:06;2.20;;;2.10;;
944;SDS011;459;48.676;9.034;2022-08-07T04:40:31;6.30;;;2.67;;
944;SDS011;459;48.676;9.034;2022-08-07T04:42:56;3.30;;;2.20;;
944;SDS011;459;48.676;9.034;2022-08-07T04:45:22;2.30;;;2.10;;
944;SDS011;459;48.676;9.034;2022-08-07T04:47:54;2.77;;;2.57;;
944;SDS011;459;48.676;9.034;2022-08-07T04:52:58;2.20;;;2.00;;
944;SDS011;459;48.676;9.034;2022-08-07T04:55:34;2.20;;;2.10;;
944;SDS011;459;48.676;9.034;2022-08-07T05:03:04;2.57;;;2.20;;
944;SDS011;459;48.676;9.034;2022-08-07T05:10:36;4.07;;;2.37;;
944;SDS011;459;48.676;9.034;2022-08-07T05:13:13;2.83;;;2.60;;
944;SDS011;459;48.676;9.034;2022-08-07T05:15:41;2.50;;;2.30;;
944;SDS011;459;48.676;9.034;2022-08-07T05:18:08;2.57;;;2.37;;
944;SDS011;459;48.676;9.034;2022-08-07T05:20:37;2.20;;;2.10;;
944;SDS011;459;48.676;9.034;2022-08-07T05:23:06;2.33;;;2.13;;
944;SDS011;459;48.676;9.034;2022-08-07T05:25:32;3.00;;;2.70;;
944;SDS011;459;48.676;9.034;2022-08-07T05:27:59;2.70;;;2.50;;
944;SDS011;459;48.676;9.034;2022-08-07T05:30:25;2.30;;;2.10;;
944;SDS011;459;48.676;9.034;2022-08-07T05:32:51;2.33;;;2.10;;
944;SDS011;459;48.676;9.034;2022-08-07T05:35:17;2.50;;;2.20;;
944;SDS011;459;48.676;9.034;2022-08-07T05:37:44;2.40;;;2.30;;
944;SDS011;459;48.676;9.034;2022-08-07T05:40:09;2.93;;;2.73;;
944;SDS011;459;48.676;9.034;2022-08-07T05:42:35;3.27;;;2.97;;
944;SDS011;459;48.676;9.034;2022-08-07T05:45:01;3.10;;;2.90;;
944;SDS011;459;48.676;9.034;2022-08-07T05:47:28;3.63;;;3.20;;
944;SDS011;459;48.676;9.034;2022-08-07T05:49:53;3.50;;;3.20;;
944;SDS011;459;48.676;9.034;2022-08-07T05:52:20;3.77;;;3.47;;
944;SDS011;459;48.676;9.034;2022-08-07T05:54:45;4.10;;;3.77;;
944;SDS011;459;48.676;9.034;2022-08-07T05:57:11;5.30;;;4.90;;
944;SDS011;459;48.676;9.034;2022-08-07T05:59:37;4.57;;;4.17;;
944;SDS011;459;48.676;9.034;2022-08-07T06:02:04;5.40;;;5.00;;
944;SDS011;459;48.676;9.034;2022-08-07T06:04:29;4.50;;;4.20;;
944;SDS011;459;48.676;9.034;2022-08-07T06:06:56;4.10;;;3.80;;
944;SDS011;459;48.676;9.034;2022-08-07T06:09:23;5.47;;;4.80;;
944;SDS011;459;48.676;9.034;2022-08-07T06:11:48;5.20;;;4.80;;
944;SDS011;459;48.676;9.034;2022-08-07T06:14:13;5.53;;;5.10;;
944;SDS011;459;48.676;9.034;2022-08-07T06:16:38;5.70;;;5.27;;
944;SDS011;459;48.676;9.034;2022-08-07T06:19:05;5.57;;;5.07;;
944;SDS011;459;48.676;9.034;2022-08-07T06:21:30;6.03;;;5.63;;
944;SDS011;459;48.676;9.034;2022-08-07T06:23:56;5.87;;;5.37;;
944;SDS011;459;48.676;9.034;2022-08-07T06:26:22;5.97;;;5.57;;
944;SDS011;459;48.676;9.034;2022-08-07T06:28:51;6.77;;;6.10;;
944;SDS011;459;48.676;9.034;2022-08-07T06:31:16;5.33;;;4.93;;
944;SDS011;459;48.676;9.034;2022-08-07T06:33:42;6.03;;;5.53;;
944;SDS011;459;48.676;9.034;2022-08-07T06:36:08;5.60;;;5.20;;
944;SDS011;459;48.676;9.034;2022-08-07T06:38:33;6.17;;;5.70;;
944;SDS011;459;48.676;9.034;2022-08-07T06:40:58;6.47;;;5.97;;
944;SDS011;459;48.676;9.034;2022-08-07T06:43:24;7.43;;;5.77;;
944;SDS011;459;48.676;9.034;2022-08-07T06:45:50;6.10;;;5.60;;
944;SDS011;459;48.676;9.034;2022-08-07T06:48:15;5.80;;;5.30;;
944;SDS011;459;48.676;9.034;2022-08-07T06:50:41;5.37;;;4.97;;
944;SDS011;459;48.676;9.034;2022-08-07T06:53:07;6.00;;;5.50;;
944;SDS011;459;48.676;9.034;2022-08-07T06:55:34;6.23;;;5.73;;
944;SDS011;459;48.676;9.034;2022-08-07T06:58:01;6.13;;;5.63;;
944;SDS011;459;48.676;9.034;2022-08-07T07:00:29;6.57;;;6.03;;
944;SDS011;459;48.676;9.034;2022-08-07T07:02:55;6.67;;;6.07;;
944;SDS011;459;48.676;9.034;2022-08-07T07:05:20;5.27;;;4.87;;
944;SDS011;459;48.676;9.034;2022-08-07T07:07:46;5.60;;;5.20;;
944;SDS011;459;48.676;9.034;2022-08-07T07:10:12;5.20;;;4.70;;
944;SDS011;459;48.676;9.034;2022-08-07T07:15:13;4.50;;;4.10;;
944;SDS011;459;48.676;9.034;2022-08-07T07:20:33;4.70;;;4.30;;
944;SDS011;459;48.676;9.034;2022-08-07T07:22:59;6.60;;;5.10;;
944;SDS011;459;48.676;9.034;2022-08-07T07:25:25;4.40;;;4.00;;
944;SDS011;459;48.676;9.034;2022-08-07T07:30:37;4.43;;;4.07;;
944;SDS011;459;48.676;9.034;2022-08-07T07:33:04;4.30;;;4.00;;
944;SDS011;459;48.676;9.034;2022-08-07T07:35:30;4.33;;;4.03;;
944;SDS011;459;48.676;9.034;2022-08-07T07:37:57;4.20;;;3.80;;
944;SDS011;459;48.676;9.034;2022-08-07T07:40:24;4.20;;;3.80;;
944;SDS011;459;48.676;9.034;2022-08-07T07:42:51;4.27;;;3.70;;
944;SDS011;459;48.676;9.034;2022-08-07T07:45:17;3.83;;;3.43;;
944;SDS011;459;48.676;9.034;2022-08-07T07:47:43;9.03;;;3.67;;
944;SDS011;459;48.676;9.034;2022-08-07T07:50:12;4.13;;;2.90;;
944;SDS011;459;48.676;9.034;2022-08-07T07:52:38;3.23;;;3.00;;
944;SDS011;459;48.676;9.034;2022-08-07T07:55:05;3.43;;;3.13;;
944;SDS011;459;48.676;9.034;2022-08-07T07:57:31;3.37;;;3.07;;
944;SDS011;459;48.676;9.034;2022-08-07T07:59:57;3.10;;;2.80;;
944;SDS011;459;48.676;9.034;2022-08-07T08:02:24;2.40;;;2.07;;
944;SDS011;459;48.676;9.034;2022-08-07T08:04:51;2.33;;;2.13;;
944;SDS011;459;48.676;9.034;2022-08-07T08:07:16;2.63;;;2.43;;
944;SDS011;459;48.676;9.034;2022-08-07T08:09:42;2.70;;;2.43;;
944;SDS011;459;48.676;9.034;2022-08-07T08:12:08;4.67;;;3.60;;
944;SDS011;459;48.676;9.034;2022-08-07T08:14:34;2.30;;;2.20;;
944;SDS011;459;48.676;9.034;2022-08-07T08:17:00;3.00;;;2.53;;
944;SDS011;459;48.676;9.034;2022-08-07T08:19:26;4.37;;;2.03;;
944;SDS011;459;48.676;9.034;2022-08-07T08:21:52;2.13;;;1.93;;
944;SDS011;459;48.676;9.034;2022-08-07T08:24:37;2.67;;;2.43;;
944;SDS011;459;48.676;9.034;2022-08-07T08:27:23;2.10;;;2.00;;
944;SDS011;459;48.676;9.034;2022-08-07T08:29:51;2.90;;;2.17;;
944;SDS011;459;48.676;9.034;2022-08-07T08:32:19;2.40;;;2.20;;
944;SDS011;459;48.676;9.034;2022-08-07T08:34:45;2.83;;;1.63;;
944;SDS011;459;48.676;9.034;2022-08-07T08:37:11;1.80;;;1.70;;
944;SDS011;459;48.676;9.034;2022-08-07T08:39:37;2.03;;;1.43;;
944;SDS011;459;48.676;9.034;2022-08-07T08:42:05;3.90;;;1.80;;
944;SDS011;459;48.676;9.034;2022-08-07T08:44:42;1.83;;;1.73;;
944;SDS011;459;48.676;9.034;2022-08-07T08:47:24;2.30;;;2.10;;
944;SDS011;459;48.676;9.034;2022-08-07T08:50:02;2.07;;;1.87;;
944;SDS011;459;48.676;9.034;2022-08-07T08:52:52;2.53;;;2.00;;
944;SDS011;459;48.676;9.034;2022-08-07T08:57:47;1.77;;;1.67;;
944;SDS011;459;48.676;9.034;2022-08-07T09:00:14;2.40;;;2.00;;
944;SDS011;459;48.676;9.034;2022-08-07T09:03:01;1.90;;;1.77;;
944;SDS011;459;48.676;9.034;2022-08-07T09:08:12;2.07;;;1.97;;
944;SDS011;459;48.676;9.034;2022-08-07T09:10:42;1.97;;;1.87;;
944;SDS011;459;48.676;9.034;2022-08-07T09:26:44;2.40;;;2.03;;
944;SDS011;459;48.676;9.034;2022-08-07T09:29:22;2.13;;;1.93;;
944;SDS011;459;48.676;9.034;2022-08-07T09:34:30;2.60;;;1.93;;
944;SDS011;459;48.676;9.034;2022-08-07T09:44:52;3.37;;;1.80;;
944;SDS011;459;48.676;9.034;2022-08-07T09:52:47;2.07;;;1.87;;
944;SDS011;459;48.676;9.034;2022-08-07T10:01:13;1.73;;;1.63;;
944;SDS011;459;48.676;9.034;2022-08-07T10:03:14;1.83;;;1.30;;
944;SDS011;459;48.676;9.034;2022-08-07T10:08:36;2.20;;;1.73;;
944;SDS011;459;48.676;9.034;2022-08-07T10:11:09;2.20;;;1.60;;
944;SDS011;459;48.676;9.034;2022-08-07T10:13:49;1.93;;;1.50;;
944;SDS011;459;48.676;9.034;2022-08-07T10:24:12;1.73;;;1.63;;
944;SDS011;459;48.676;9.034;2022-08-07T10:27:01;6.20;;;1.40;;
944;SDS011;459;48.676;9.034;2022-08-07T10:29:36;2.27;;;1.60;;
944;SDS011;459;48.676;9.034;2022-08-07T10:32:17;2.07;;;1.70;;
944;SDS011;459;48.676;9.034;2022-08-07T10:42:17;2.43;;;2.10;;
944;SDS011;459;48.676;9.034;2022-08-07T10:44:47;2.00;;;1.80;;
944;SDS011;459;48.676;9.034;2022-08-07T10:47:18;1.30;;;1.20;;
944;SDS011;459;48.676;9.034;2022-08-07T10:49:47;1.90;;;1.20;;
944;SDS011;459;48.676;9.034;2022-08-07T10:52:17;3.30;;;1.87;;
944;SDS011;459;48.676;9.034;2022-08-07T10:54:58;1.60;;;1.30;;
944;SDS011;459;48.676;9.034;2022-08-07T11:02:18;1.50;;;1.13;;
944;SDS011;459;48.676;9.034;2022-08-07T11:04:51;1.33;;;1.23;;
944;SDS011;459;48.676;9.034;2022-08-07T11:10:04;1.50;;;1.33;;
944;SDS011;459;48.676;9.034;2022-08-07T11:13:06;1.57;;;1.10;;
944;SDS011;459;48.676;9.034;2022-08-07T11:15:24;1.10;;;0.90;;
944;SDS011;459;48.676;9.034;2022-08-07T11:18:02;1.57;;;1.20;;
944;SDS011;459;48.676;9.034;2022-08-07T11:25:31;1.30;;;1.20;;
944;SDS011;459;48.676;9.034;2022-08-07T11:28:03;1.67;;;1.40;;
944;SDS011;459;48.676;9.034;2022-08-07T11:30:34;1.80;;;1.10;;
944;SDS011;459;48.676;9.034;2022-08-07T11:33:08;1.50;;;1.40;;
944;SDS011;459;48.676;9.034;2022-08-07T11:38:21;1.53;;;1.10;;
944;SDS011;459;48.676;9.034;2022-08-07T11:40:56;1.30;;;0.97;;
944;SDS011;459;48.676;9.034;2022-08-07T11:43:23;1.30;;;1.20;;
944;SDS011;459;48.676;9.034;2022-08-07T11:48:53;1.20;;;1.10;;
944;SDS011;459;48.676;9.034;2022-08-07T12:02:27;2.13;;;1.10;;
944;SDS011;459;48.676;9.034;2022-08-07T12:05:06;1.60;;;0.90;;
944;SDS011;459;48.676;9.034;2022-08-07T12:10:17;1.10;;;0.90;;
944;SDS011;459;48.676;9.034;2022-08-07T12:12:45;1.00;;;0.90;;
944;SDS011;459;48.676;9.034;2022-08-07T12:15:13;1.10;;;1.00;;
944;SDS011;459;48.676;9.034;2022-08-07T12:17:47;1.23;;;1.10;;
944;SDS011;459;48.676;9.034;2022-08-07T12:22:55;1.50;;;1.13;;
944;SDS011;459;48.676;9.034;2022-08-07T12:31:30;2.00;;;1.20;;
944;SDS011;459;48.676;9.034;2022-08-07T12:33:58;1.87;;;1.23;;
944;SDS011;459;48.676;9.034;2022-08-07T12:36:24;1.10;;;1.00;;
944;SDS011;459;48.676;9.034;2022-08-07T12:38:50;1.47;;;1.27;;
944;SDS011;459;48.676;9.034;2022-08-07T12:41:17;1.93;;;1.17;;
944;SDS011;459;48.676;9.034;2022-08-07T12:43:43;1.20;;;1.10;;
944;SDS011;459;48.676;9.034;2022-08-07T12:46:18;1.00;;;0.83;;
944;SDS011;459;48.676;9.034;2022-08-07T12:48:46;1.83;;;1.10;;
944;SDS011;459;48.676;9.034;2022-08-07T12:51:18;2.27;;;1.07;;
944;SDS011;459;48.676;9.034;2022-08-07T12:53:48;1.53;;;1.43;;
944;SDS011;459;48.676;9.034;2022-08-07T12:58:46;1.67;;;1.33;;
944;SDS011;459;48.676;9.034;2022-08-07T13:11:33;1.40;;;1.30;;
944;SDS011;459;48.676;9.034;2022-08-07T13:14:02;1.47;;;1.00;;
944;SDS011;459;48.676;9.034;2022-08-07T13:16:35;1.83;;;1.13;;
944;SDS011;459;48.676;9.034;2022-08-07T13:19:15;1.47;;;1.20;;
944;SDS011;459;48.676;9.034;2022-08-07T13:21:45;0.90;;;0.80;;
944;SDS011;459;48.676;9.034;2022-08-07T13:26:48;1.43;;;1.17;;
944;SDS011;459;48.676;9.034;2022-08-07T13:32:00;1.43;;;1.10;;
944;SDS011;459;48.676;9.034;2022-08-07T13:34:31;1.97;;;1.07;;
944;SDS011;459;48.676;9.034;2022-08-07T13:36:58;1.40;;;1.27;;
944;SDS011;459;48.676;9.034;2022-08-07T13:40:28;2.60;;;1.00;;
944;SDS011;459;48.676;9.034;2022-08-07T13:42:24;1.67;;;1.40;;
944;SDS011;459;48.676;9.034;2022-08-07T13:44:51;1.33;;;1.23;;
944;SDS011;459;48.676;9.034;2022-08-07T13:47:17;1.40;;;1.17;;
944;SDS011;459;48.676;9.034;2022-08-07T13:49:44;1.40;;;1.10;;
944;SDS011;459;48.676;9.034;2022-08-07T13:52:09;1.53;;;1.17;;
944;SDS011;459;48.676;9.034;2022-08-07T13:54:35;1.50;;;1.40;;
944;SDS011;459;48.676;9.034;2022-08-07T13:57:04;1.43;;;1.33;;
944;SDS011;459;48.676;9.034;2022-08-07T13:59:36;1.40;;;1.07;;
944;SDS011;459;48.676;9.034;2022-08-07T14:02:04;1.97;;;1.33;;
944;SDS011;459;48.676;9.034;2022-08-07T14:04:53;2.93;;;1.53;;
944;SDS011;459;48.676;9.034;2022-08-07T14:07:26;1.40;;;1.23;;
944;SDS011;459;48.676;9.034;2022-08-07T14:09:52;1.30;;;1.20;;
944;SDS011;459;48.676;9.034;2022-08-07T14:15:03;1.33;;;1.13;;
944;SDS011;459;48.676;9.034;2022-08-07T14:17:29;1.30;;;1.10;;
944;SDS011;459;48.676;9.034;2022-08-07T14:20:07;1.33;;;1.23;;
944;SDS011;459;48.676;9.034;2022-08-07T14:22:33;1.90;;;1.27;;
944;SDS011;459;48.676;9.034;2022-08-07T14:25:00;1.30;;;1.17;;
944;SDS011;459;48.676;9.034;2022-08-07T14:27:28;1.97;;;1.40;;
944;SDS011;459;48.676;9.034;2022-08-07T14:30:00;1.73;;;1.63;;
944;SDS011;459;48.676;9.034;2022-08-07T14:32:25;1.60;;;1.50;;
944;SDS011;459;48.676;9.034;2022-08-07T14:34:53;2.13;;;1.20;;
944;SDS011;459;48.676;9.034;2022-08-07T14:37:19;1.50;;;1.40;;
944;SDS011;459;48.676;9.034;2022-08-07T14:39:45;1.70;;;1.60;;
944;SDS011;459;48.676;9.034;2022-08-07T14:42:11;1.67;;;1.57;;
944;SDS011;459;48.676;9.034;2022-08-07T14:44:37;2.90;;;1.40;;
944;SDS011;459;48.676;9.034;2022-08-07T14:47:04;1.60;;;1.20;;
944;SDS011;459;48.676;9.034;2022-08-07T14:49:31;1.00;;;0.90;;
944;SDS011;459;48.676;9.034;2022-08-07T14:51:57;1.40;;;1.30;;
944;SDS011;459;48.676;9.034;2022-08-07T14:54:23;1.27;;;1.13;;
944;SDS011;459;48.676;9.034;2022-08-07T14:56:52;3.13;;;1.40;;
944;SDS011;459;48.676;9.034;2022-08-07T14:59:19;1.50;;;1.30;;
944;SDS011;459;48.676;9.034;2022-08-07T15:01:45;1.50;;;1.30;;
944;SDS011;459;48.676;9.034;2022-08-07T15:04:11;2.03;;;1.40;;
944;SDS011;459;48.676;9.034;2022-08-07T15:06:37;1.43;;;1.10;;
944;SDS011;459;48.676;9.034;2022-08-07T15:09:06;2.50;;;1.10;;
944;SDS011;459;48.676;9.034;2022-08-07T15:11:35;1.40;;;1.30;;
944;SDS011;459;48.676;9.034;2022-08-07T15:14:02;1.60;;;1.27;;
944;SDS011;459;48.676;9.034;2022-08-07T15:16:52;1.80;;;1.30;;
944;SDS011;459;48.676;9.034;2022-08-07T15:19:18;6.10;;;1.37;;
944;SDS011;459;48.676;9.034;2022-08-07T15:21:50;1.30;;;1.20;;
944;SDS011;459;48.676;9.034;2022-08-07T15:24:19;1.70;;;1.20;;
944;SDS011;459;48.676;9.034;2022-08-07T15:26:46;2.60;;;1.30;;
944;SDS011;459;48.676;9.034;2022-08-07T15:29:14;1.97;;;1.20;;
944;SDS011;459;48.676;9.034;2022-08-07T15:31:41;1.83;;;1.63;;
944;SDS011;459;48.676;9.034;2022-08-07T15:34:07;1.30;;;1.20;;
944;SDS011;459;48.676;9.034;2022-08-07T15:36:33;1.57;;;1.47;;
944;SDS011;459;48.676;9.034;2022-08-07T15:39:05;1.50;;;1.40;;
944;SDS011;459;48.676;9.034;2022-08-07T15:41:31;1.90;;;1.40;;
944;SDS011;459;48.676;9.034;2022-08-07T15:44:04;1.40;;;1.30;;
944;SDS011;459;48.676;9.034;2022-08-07T15:46:31;3.27;;;1.30;;
944;SDS011;459;48.676;9.034;2022-08-07T15:48:59;1.40;;;1.20;;
944;SDS011;459;48.676;9.034;2022-08-07T15:51:24;2.70;;;1.10;;
944;SDS011;459;48.676;9.034;2022-08-07T15:53:52;1.30;;;1.20;;
944;SDS011;459;48.676;9.034;2022-08-07T15:56:18;1.30;;;1.20;;
944;SDS011;459;48.676;9.034;2022-08-07T16:01:15;1.27;;;1.17;;
944;SDS011;459;48.676;9.034;2022-08-07T16:03:42;1.40;;;1.30;;
944;SDS011;459;48.676;9.034;2022-08-07T16:06:09;2.00;;;1.20;;
944;SDS011;459;48.676;9.034;2022-08-07T16:08:38;1.63;;;1.43;;
944;SDS011;459;48.676;9.034;2022-08-07T16:11:05;1.30;;;1.20;;
944;SDS011;459;48.676;9.034;2022-08-07T16:13:49;1.67;;;1.10;;
944;SDS011;459;48.676;9.034;2022-08-07T16:19:27;1.83;;;1.30;;
944;SDS011;459;48.676;9.034;2022-08-07T16:21:34;1.50;;;1.30;;
944;SDS011;459;48.676;9.034;2022-08-07T16:24:02;2.90;;;1.13;;
944;SDS011;459;48.676;9.034;2022-08-07T16:26:37;1.40;;;1.03;;
944;SDS011;459;48.676;9.034;2022-08-07T16:31:54;1.43;;;1.20;;
944;SDS011;459;48.676;9.034;2022-08-07T16:37:03;1.20;;;1.10;;
944;SDS011;459;48.676;9.034;2022-08-07T16:39:53;1.40;;;1.30;;
944;SDS011;459;48.676;9.034;2022-08-07T16:42:27;2.30;;;1.37;;
944;SDS011;459;48.676;9.034;2022-08-07T16:47:45;1.40;;;1.30;;
944;SDS011;459;48.676;9.034;2022-08-07T16:55:31;1.20;;;0.90;;
944;SDS011;459;48.676;9.034;2022-08-07T17:00:21;1.70;;;1.60;;
944;SDS011;459;48.676;9.034;2022-08-07T17:03:00;1.63;;;1.50;;
944;SDS011;459;48.676;9.034;2022-08-07T17:07:56;1.70;;;1.60;;
944;SDS011;459;48.676;9.034;2022-08-07T17:15:30;1.83;;;1.50;;
944;SDS011;459;48.676;9.034;2022-08-07T17:18:07;1.70;;;1.60;;
944;SDS011;459;48.676;9.034;2022-08-07T17:20:35;2.40;;;1.60;;
944;SDS011;459;48.676;9.034;2022-08-07T17:28:34;1.20;;;1.10;;
944;SDS011;459;48.676;9.034;2022-08-07T17:31:12;1.60;;;1.50;;
944;SDS011;459;48.676;9.034;2022-08-07T17:33:39;1.50;;;1.40;;
944;SDS011;459;48.676;9.034;2022-08-07T17:38:38;1.60;;;1.50;;
944;SDS011;459;48.676;9.034;2022-08-07T17:43:37;1.40;;;1.30;;
944;SDS011;459;48.676;9.034;2022-08-07T17:48:41;1.30;;;1.20;;
944;SDS011;459;48.676;9.034;2022-08-07T17:53:57;1.70;;;1.60;;
944;SDS011;459;48.676;9.034;2022-08-07T17:56:26;1.50;;;1.40;;
944;SDS011;459;48.676;9.034;2022-08-07T17:58:57;2.10;;;1.57;;
944;SDS011;459;48.676;9.034;2022-08-07T18:01:24;1.70;;;1.60;;
944;SDS011;459;48.676;9.034;2022-08-07T18:04:11;2.23;;;1.93;;
944;SDS011;459;48.676;9.034;2022-08-07T18:06:44;1.83;;;1.60;;
944;SDS011;459;48.676;9.034;2022-08-07T18:09:14;1.40;;;1.30;;
944;SDS011;459;48.676;9.034;2022-08-07T18:11:41;2.73;;;1.50;;
944;SDS011;459;48.676;9.034;2022-08-07T18:17:00;2.00;;;1.73;;
944;SDS011;459;48.676;9.034;2022-08-07T18:19:31;2.33;;;1.40;;
944;SDS011;459;48.676;9.034;2022-08-07T18:22:08;1.50;;;1.30;;
944;SDS011;459;48.676;9.034;2022-08-07T18:24:34;1.90;;;1.70;;
944;SDS011;459;48.676;9.034;2022-08-07T18:27:07;2.57;;;2.37;;
944;SDS011;459;48.676;9.034;2022-08-07T18:29:41;4.10;;;1.70;;
944;SDS011;459;48.676;9.034;2022-08-07T18:37:23;1.40;;;1.30;;
944;SDS011;459;48.676;9.034;2022-08-07T18:39:59;1.83;;;1.63;;
944;SDS011;459;48.676;9.034;2022-08-07T18:42:48;2.60;;;1.40;;
944;SDS011;459;48.676;9.034;2022-08-07T18:45:22;3.03;;;2.00;;
944;SDS011;459;48.676;9.034;2022-08-07T18:51:05;3.47;;;3.17;;
944;SDS011;459;48.676;9.034;2022-08-07T18:56:13;1.90;;;1.60;;
944;SDS011;459;48.676;9.034;2022-08-07T18:59:02;2.20;;;2.00;;
944;SDS011;459;48.676;9.034;2022-08-07T19:04:02;1.57;;;1.47;;
944;SDS011;459;48.676;9.034;2022-08-07T19:09:04;2.00;;;1.30;;
944;SDS011;459;48.676;9.034;2022-08-07T19:14:13;4.90;;;1.57;;
944;SDS011;459;48.676;9.034;2022-08-07T19:16:48;2.07;;;1.53;;
944;SDS011;459;48.676;9.034;2022-08-07T19:19:22;1.70;;;1.60;;